createdAt,value
2023-01-19T00:01:58.769Z,91.20
2023-01-19T00:04:29.491Z,91.10
2023-01-19T00:07:00.196Z,91.20
2023-01-19T00:09:32.284Z,91.10
2023-01-19T00:12:03.559Z,91.20
2023-01-19T00:14:34.679Z,91.10
2023-01-19T00:17:05.984Z,91.10
2023-01-19T00:19:36.692Z,91.10
2023-01-19T00:22:07.715Z,91.10
2023-01-19T00:24:38.753Z,91.20
2023-01-19T00:27:09.478Z,91.20
2023-01-19T00:29:40.395Z,91.20
2023-01-19T00:32:11.133Z,91.20
2023-01-19T00:34:43.535Z,91.10
2023-01-19T00:37:14.571Z,91.10
2023-01-19T00:39:45.335Z,91.10
2023-01-19T00:42:33.729Z,91.10
2023-01-19T00:45:08.019Z,90.80
2023-01-19T00:47:40.424Z,90.60
2023-01-19T00:50:13.463Z,90.50
2023-01-19T00:52:45.013Z,90.40
2023-01-19T00:55:18.022Z,90.10
2023-01-19T00:57:48.949Z,89.80
2023-01-19T01:00:22.310Z,89.50
2023-01-19T01:02:55.029Z,89.10
2023-01-19T01:05:25.887Z,88.70
2023-01-19T01:07:58.268Z,88.50
2023-01-19T01:10:31.263Z,88.30
2023-01-19T01:13:20.592Z,88.40
2023-01-19T01:15:35.762Z,88.10
2023-01-19T01:18:06.660Z,88.00
2023-01-19T01:20:38.644Z,87.80
2023-01-19T01:23:09.535Z,87.80
2023-01-19T01:25:40.230Z,88.10
2023-01-19T01:28:12.380Z,87.90
2023-01-19T01:30:44.485Z,87.90
2023-01-19T01:33:15.381Z,87.80
2023-01-19T01:35:47.490Z,87.40
2023-01-19T01:38:18.799Z,87.60
2023-01-19T01:40:49.460Z,87.80
2023-01-19T01:43:23.013Z,87.70
2023-01-19T01:45:56.138Z,87.30
2023-01-19T01:48:32.219Z,87.10
2023-01-19T01:51:22.345Z,86.50
2023-01-19T01:54:04.391Z,86.40
2023-01-19T01:56:37.650Z,86.00
2023-01-19T01:59:10.997Z,85.90
2023-01-19T02:02:00.380Z,86.20
2023-01-19T02:04:33.429Z,86.00
2023-01-19T02:07:21.848Z,85.30
2023-01-19T02:10:11.001Z,84.70
2023-01-19T02:12:59.834Z,84.90
2023-01-19T02:15:30.826Z,84.30
2023-01-19T02:18:04.457Z,83.80
2023-01-19T02:20:38.719Z,84.80
2023-01-19T02:23:11.941Z,83.60
2023-01-19T02:25:42.880Z,83.30
2023-01-19T02:28:15.081Z,82.70
2023-01-19T02:30:46.059Z,83.00
2023-01-19T02:33:17.227Z,83.20
2023-01-19T02:35:49.699Z,83.00
2023-01-19T02:38:23.214Z,83.20
2023-01-19T02:40:56.111Z,83.30
2023-01-19T02:43:27.256Z,82.60
2023-01-19T02:45:58.496Z,82.20
2023-01-19T02:48:29.228Z,82.30
2023-01-19T02:51:08.755Z,82.50
2023-01-19T02:53:50.895Z,82.60
2023-01-19T02:56:41.924Z,82.40
2023-01-19T02:59:20.709Z,82.40
2023-01-19T03:02:05.916Z,82.20
2023-01-19T03:04:39.295Z,82.10
2023-01-19T03:07:15.685Z,82.00
2023-01-19T03:09:55.151Z,81.80
2023-01-19T03:12:31.127Z,81.60
2023-01-19T03:15:04.514Z,81.70
2023-01-19T03:17:36.997Z,81.50
2023-01-19T03:20:10.190Z,81.20
2023-01-19T03:22:41.795Z,81.10
2023-01-19T03:25:14.267Z,81.20
2023-01-19T03:27:47.048Z,81.00
2023-01-19T03:30:23.404Z,80.60
2023-01-19T03:33:08.775Z,80.30
2023-01-19T03:35:56.726Z,80.30
2023-01-19T03:38:29.787Z,80.50
2023-01-19T03:41:03.084Z,80.00
2023-01-19T03:43:35.193Z,80.00
2023-01-19T03:46:08.150Z,79.90
2023-01-19T03:48:39.139Z,79.60
2023-01-19T03:51:11.674Z,79.40
2023-01-19T03:53:42.597Z,78.90
2023-01-19T03:56:24.773Z,78.90
2023-01-19T03:58:56.327Z,78.60
2023-01-19T04:01:28.039Z,77.80
2023-01-19T04:03:59.110Z,78.00
2023-01-19T04:06:29.938Z,77.20
2023-01-19T04:09:00.742Z,76.80
2023-01-19T04:11:31.540Z,76.90
2023-01-19T04:14:02.905Z,75.90
2023-01-19T04:16:33.608Z,75.60
2023-01-19T04:19:04.940Z,75.50
2023-01-19T04:21:36.559Z,75.50
2023-01-19T04:24:07.694Z,75.10
2023-01-19T04:26:58.559Z,74.90
2023-01-19T04:29:29.437Z,74.60
2023-01-19T04:32:00.648Z,74.50
2023-01-19T04:34:31.358Z,73.80
2023-01-19T04:37:02.244Z,73.90
2023-01-19T04:39:33.137Z,73.90
2023-01-19T04:42:03.949Z,72.50
2023-01-19T04:44:34.723Z,72.50
2023-01-19T04:47:05.593Z,72.20
2023-01-19T04:49:37.838Z,71.80
2023-01-19T04:52:09.091Z,71.60
2023-01-19T04:54:39.993Z,70.90
2023-01-19T04:57:10.914Z,71.30
2023-01-19T04:59:45.351Z,70.70
2023-01-19T05:02:15.288Z,70.90
2023-01-19T05:04:46.005Z,70.60
2023-01-19T05:07:16.754Z,70.20
2023-01-19T05:09:47.441Z,70.10
2023-01-19T05:12:18.605Z,70.10
2023-01-19T05:14:49.295Z,69.00
2023-01-19T05:17:20.034Z,69.20
2023-01-19T05:19:50.757Z,68.40
2023-01-19T05:22:21.447Z,68.20
2023-01-19T05:24:52.248Z,67.80
2023-01-19T05:27:23.063Z,68.20
2023-01-19T05:29:54.510Z,67.10
2023-01-19T05:32:25.647Z,66.60
2023-01-19T05:34:56.464Z,67.40
2023-01-19T05:37:27.180Z,67.60
2023-01-19T05:39:57.851Z,67.60
2023-01-19T05:47:34.579Z,92.50
2023-01-19T05:50:05.751Z,80.80
2023-01-19T05:52:36.437Z,80.70
2023-01-19T05:55:07.811Z,82.50
2023-01-19T05:57:40.616Z,65.00
2023-01-19T06:00:12.187Z,65.50
2023-01-19T06:02:43.182Z,64.80
2023-01-19T06:05:14.111Z,65.20
2023-01-19T06:07:45.092Z,64.50
2023-01-19T06:10:15.904Z,64.00
2023-01-19T06:12:47.111Z,63.20
2023-01-19T06:15:20.190Z,63.60
2023-01-19T06:17:50.971Z,64.10
2023-01-19T06:20:22.063Z,63.00
2023-01-19T06:22:53.301Z,63.60
2023-01-19T06:25:24.189Z,64.10
2023-01-19T06:27:55.272Z,63.60
2023-01-19T06:30:26.633Z,63.10
2023-01-19T06:32:57.422Z,62.30
2023-01-19T06:35:28.501Z,62.00
2023-01-19T06:37:59.397Z,61.70
2023-01-19T06:40:30.726Z,61.80
2023-01-19T06:43:02.256Z,62.00
2023-01-19T06:45:33.495Z,62.40
2023-01-19T06:48:05.792Z,61.50
2023-01-19T06:50:37.183Z,60.80
2023-01-19T06:53:10.102Z,61.30
2023-01-19T06:55:40.981Z,61.00
2023-01-19T06:58:12.805Z,61.40
2023-01-19T07:00:44.128Z,60.70
2023-01-19T07:03:19.572Z,60.60
2023-01-19T07:05:51.096Z,61.40
2023-01-19T07:08:26.349Z,61.00
2023-01-19T07:11:25.920Z,61.60
2023-01-19T07:13:44.177Z,60.90
2023-01-19T07:16:16.458Z,60.80
2023-01-19T07:18:47.179Z,60.20
2023-01-19T07:21:17.966Z,60.20
2023-01-19T07:23:53.721Z,60.20
2023-01-19T07:26:26.608Z,60.00
2023-01-19T07:28:58.123Z,61.00
2023-01-19T07:31:29.301Z,60.80
2023-01-19T07:34:00.246Z,60.10
2023-01-19T07:36:30.983Z,59.20
2023-01-19T07:39:02.242Z,59.10
2023-01-19T07:41:33.138Z,59.10
2023-01-19T07:44:03.913Z,58.90
2023-01-19T07:46:36.009Z,58.80
2023-01-19T07:49:06.930Z,59.10
2023-01-19T07:51:37.911Z,59.10
2023-01-19T07:54:09.806Z,59.70
2023-01-19T07:56:47.765Z,58.50
2023-01-19T07:59:18.249Z,58.60
2023-01-19T08:01:49.449Z,58.30
2023-01-19T08:04:20.583Z,58.00
2023-01-19T08:06:51.460Z,57.60
2023-01-19T08:09:23.551Z,57.90
2023-01-19T08:11:55.306Z,58.40
2023-01-19T08:14:26.280Z,57.90
2023-01-19T08:16:58.350Z,58.50
2023-01-19T08:19:30.400Z,58.10
2023-01-19T08:22:01.257Z,58.40
2023-01-19T08:24:32.763Z,58.50
2023-01-19T08:27:05.106Z,58.90
2023-01-19T08:29:36.504Z,58.60
2023-01-19T08:32:09.241Z,58.80
2023-01-19T08:34:40.490Z,58.60
2023-01-19T08:37:11.303Z,58.70
2023-01-19T08:39:41.958Z,57.80
2023-01-19T08:42:12.681Z,57.70
2023-01-19T08:44:57.310Z,57.80
2023-01-19T08:47:15.717Z,57.90
2023-01-19T08:49:46.923Z,58.20
2023-01-19T08:52:17.584Z,58.40
2023-01-19T08:54:48.416Z,58.80
2023-01-19T08:57:19.654Z,58.10
2023-01-19T08:59:50.774Z,58.60
2023-01-19T09:02:21.624Z,59.10
2023-01-19T09:04:52.860Z,58.40
2023-01-19T09:07:23.797Z,58.40
2023-01-19T09:09:54.763Z,58.60
2023-01-19T09:12:25.794Z,58.30
2023-01-19T09:14:56.513Z,58.30
2023-01-19T09:17:27.579Z,58.50
2023-01-19T09:19:58.312Z,58.20
2023-01-19T09:22:29.017Z,58.00
2023-01-19T09:24:59.778Z,58.20
2023-01-19T09:27:30.794Z,58.70
2023-01-19T09:30:01.618Z,58.70
2023-01-19T09:32:32.430Z,58.70
2023-01-19T09:35:03.584Z,58.60
2023-01-19T09:37:38.807Z,58.70
2023-01-19T09:40:11.294Z,58.50
2023-01-19T09:42:53.689Z,58.80
2023-01-19T09:45:26.945Z,58.80
2023-01-19T09:48:00.164Z,58.50
2023-01-19T09:50:37.624Z,58.70
2023-01-19T09:53:20.035Z,58.60
2023-01-19T09:55:52.499Z,58.70
2023-01-19T09:58:24.253Z,58.60
2023-01-19T10:00:57.525Z,58.90
2023-01-19T10:03:28.427Z,59.20
2023-01-19T10:06:02.291Z,59.90
2023-01-19T10:08:50.586Z,59.00
2023-01-19T10:11:42.072Z,59.10
2023-01-19T10:14:08.618Z,59.20
2023-01-19T10:16:53.812Z,59.50
2023-01-19T10:19:27.064Z,59.70
2023-01-19T10:22:00.299Z,59.80
2023-01-19T10:24:36.572Z,60.00
2023-01-19T10:27:10.020Z,60.00
2023-01-19T10:29:41.130Z,60.10
2023-01-19T10:32:20.992Z,60.00
2023-01-19T10:34:56.037Z,59.90
2023-01-19T10:37:35.309Z,60.00
2023-01-19T10:40:29.851Z,60.10
2023-01-19T10:43:01.153Z,60.80
2023-01-19T10:45:35.408Z,60.90
2023-01-19T10:48:10.221Z,60.90
2023-01-19T10:50:41.429Z,61.10
2023-01-19T10:53:20.748Z,61.30
2023-01-19T10:55:52.870Z,61.60
2023-01-19T10:58:32.160Z,61.80
2023-01-19T11:01:17.839Z,61.90
2023-01-19T11:03:49.121Z,62.30
2023-01-19T11:06:22.864Z,62.40
2023-01-19T11:08:59.293Z,62.60
2023-01-19T11:11:30.361Z,62.70
2023-01-19T11:14:13.965Z,63.00
2023-01-19T11:17:03.134Z,63.00
2023-01-19T11:19:35.700Z,63.20
2023-01-19T11:22:15.046Z,63.30
2023-01-19T11:24:47.427Z,63.50
2023-01-19T11:27:22.605Z,63.50
2023-01-19T11:29:55.840Z,63.60
2023-01-19T11:32:28.003Z,63.80
2023-01-19T11:35:00.071Z,64.00
2023-01-19T11:37:34.817Z,65.00
2023-01-19T11:40:08.227Z,64.30
2023-01-19T11:42:39.438Z,64.40
2023-01-19T11:45:15.561Z,64.60
2023-01-19T11:47:50.045Z,64.70
2023-01-19T11:50:32.846Z,64.80
2023-01-19T11:53:31.963Z,65.00
2023-01-19T11:56:08.208Z,65.10
2023-01-19T11:58:44.445Z,65.10
2023-01-19T12:01:26.564Z,65.20
2023-01-19T12:04:06.149Z,65.30
2023-01-19T12:06:39.401Z,66.40
2023-01-19T12:09:15.185Z,65.60
2023-01-19T12:11:48.545Z,65.80
2023-01-19T12:14:28.233Z,66.00
2023-01-19T12:17:01.622Z,66.20
2023-01-19T12:19:39.108Z,66.20
2023-01-19T12:22:11.455Z,66.30
2023-01-19T12:24:44.679Z,66.50
2023-01-19T12:27:26.824Z,66.70
2023-01-19T12:29:58.300Z,66.80
2023-01-19T12:32:38.068Z,67.00
2023-01-19T12:35:11.033Z,67.10
2023-01-19T12:37:44.022Z,67.20
2023-01-19T12:40:32.716Z,67.20
2023-01-19T12:43:07.940Z,67.20
2023-01-19T12:45:40.949Z,67.40
2023-01-19T12:48:16.498Z,67.50
2023-01-19T12:50:48.824Z,67.70
2023-01-19T12:53:22.365Z,68.10
2023-01-19T12:56:04.107Z,68.20
2023-01-19T12:58:35.653Z,68.40
2023-01-19T13:01:18.351Z,68.60
2023-01-19T13:04:08.197Z,69.00
2023-01-19T13:06:53.757Z,69.20
2023-01-19T13:09:38.431Z,69.60
2023-01-19T13:12:23.512Z,69.70
2023-01-19T13:14:55.980Z,70.00
2023-01-19T13:17:35.139Z,70.10
2023-01-19T13:20:24.815Z,71.30
2023-01-19T13:23:13.240Z,70.60
2023-01-19T13:25:45.832Z,70.70
2023-01-19T13:28:18.759Z,70.90
2023-01-19T13:31:02.091Z,70.90
2023-01-19T13:33:35.979Z,70.90
2023-01-19T13:36:08.222Z,71.10
2023-01-19T13:38:39.234Z,71.50
2023-01-19T13:41:10.153Z,71.30
2023-01-19T13:43:42.024Z,71.40
2023-01-19T13:46:15.335Z,71.80
2023-01-19T13:49:00.785Z,72.10
2023-01-19T13:51:31.838Z,72.20
2023-01-19T13:54:03.653Z,72.20
2023-01-19T13:56:34.638Z,72.50
2023-01-19T13:59:13.730Z,72.50
2023-01-19T14:01:47.066Z,72.40
2023-01-19T14:04:35.558Z,72.70
2023-01-19T14:07:08.905Z,73.20
2023-01-19T14:09:40.729Z,73.00
2023-01-19T14:12:17.025Z,73.40
2023-01-19T14:14:49.633Z,73.50
2023-01-19T14:17:33.751Z,73.40
2023-01-19T14:20:05.901Z,73.20
2023-01-19T14:22:45.188Z,72.50
2023-01-19T14:25:34.226Z,73.30
2023-01-19T14:28:29.883Z,74.20
2023-01-19T14:31:06.125Z,73.60
2023-01-19T14:33:46.243Z,73.70
2023-01-19T14:36:31.695Z,73.70
2023-01-19T14:39:03.607Z,73.30
2023-01-19T14:41:42.876Z,73.30
2023-01-19T14:44:15.635Z,72.90
2023-01-19T14:46:50.738Z,72.60
2023-01-19T14:49:29.844Z,72.50
2023-01-19T14:52:01.244Z,72.40
2023-01-19T14:54:37.619Z,72.30
2023-01-19T14:57:10.232Z,72.30
2023-01-19T14:59:41.156Z,72.40
2023-01-19T15:02:12.653Z,72.60
2023-01-19T15:04:43.644Z,72.90
2023-01-19T15:07:21.893Z,72.90
2023-01-19T15:09:54.049Z,73.00
2023-01-19T15:12:27.581Z,73.00
2023-01-19T15:14:58.830Z,73.00
2023-01-19T15:17:32.810Z,73.00
2023-01-19T15:20:03.652Z,73.00
2023-01-19T15:22:34.458Z,72.80
2023-01-19T15:25:05.199Z,72.80
2023-01-19T15:27:36.131Z,73.00
2023-01-19T15:30:08.552Z,73.10
2023-01-19T15:32:40.720Z,73.20
2023-01-19T15:35:22.827Z,73.50
2023-01-19T15:37:55.308Z,73.70
2023-01-19T15:40:26.211Z,74.20
2023-01-19T15:42:57.895Z,74.30
2023-01-19T15:45:43.214Z,74.40
2023-01-19T15:48:14.967Z,74.90
2023-01-19T15:50:47.088Z,75.50
2023-01-19T15:53:20.415Z,75.00
2023-01-19T15:55:53.628Z,75.10
2023-01-19T15:58:24.641Z,75.20
2023-01-19T16:01:00.703Z,75.10
2023-01-19T16:03:31.757Z,75.30
2023-01-19T16:06:05.498Z,75.60
2023-01-19T16:08:36.466Z,76.00
2023-01-19T16:11:18.935Z,76.30
2023-01-19T16:13:49.815Z,77.10
2023-01-19T16:16:22.960Z,77.40
2023-01-19T16:18:54.146Z,78.10
2023-01-19T16:21:25.231Z,78.10
2023-01-19T16:23:56.623Z,78.50
2023-01-19T16:26:30.242Z,78.80
2023-01-19T16:29:11.115Z,78.90
2023-01-19T16:31:43.333Z,79.30
2023-01-19T16:34:14.694Z,79.60
2023-01-19T16:36:46.083Z,79.70
2023-01-19T16:39:18.564Z,80.10
2023-01-19T16:41:49.433Z,80.10
2023-01-19T16:44:20.334Z,80.50
2023-01-19T16:46:51.142Z,80.70
2023-01-19T16:49:24.108Z,81.00
2023-01-19T16:51:56.885Z,81.00
2023-01-19T16:54:28.475Z,81.20
2023-01-19T16:57:00.530Z,81.40
2023-01-19T16:59:31.365Z,81.60
2023-01-19T17:02:02.561Z,81.80
2023-01-19T17:04:33.328Z,81.90
2023-01-19T17:07:04.020Z,82.20
2023-01-19T17:09:35.127Z,82.40
2023-01-19T17:12:06.035Z,82.40
2023-01-19T17:14:38.552Z,82.90
2023-01-19T17:17:10.663Z,83.00
2023-01-19T17:19:41.984Z,83.20
2023-01-19T17:22:14.101Z,83.30
2023-01-19T17:24:45.828Z,83.70
2023-01-19T17:27:17.553Z,83.80
2023-01-19T17:29:49.871Z,97.40
2023-01-19T17:32:20.539Z,84.10
2023-01-19T17:34:54.498Z,84.40
2023-01-19T17:37:25.388Z,84.60
2023-01-19T17:39:57.605Z,84.60
2023-01-19T17:42:28.464Z,84.90
2023-01-19T17:44:59.785Z,84.90
2023-01-19T17:47:30.520Z,85.10
2023-01-19T17:50:01.338Z,85.30
2023-01-19T17:52:32.510Z,85.60
2023-01-19T17:55:03.411Z,85.70
2023-01-19T17:57:34.321Z,85.70
2023-01-19T18:00:09.107Z,85.90
2023-01-19T18:02:39.945Z,86.00
2023-01-19T18:05:13.308Z,86.20
2023-01-19T18:07:44.100Z,86.40
2023-01-19T18:10:16.111Z,86.10
2023-01-19T18:12:47.457Z,86.30
2023-01-19T18:15:18.403Z,86.30
2023-01-19T18:17:49.542Z,86.50
2023-01-19T18:20:20.788Z,86.50
2023-01-19T18:22:51.503Z,86.60
2023-01-19T18:25:22.192Z,86.80
2023-01-19T18:27:52.872Z,86.80
2023-01-19T18:30:24.013Z,86.80
2023-01-19T18:32:54.768Z,86.80
2023-01-19T18:35:25.471Z,86.70
2023-01-19T18:37:58.286Z,86.90
2023-01-19T18:40:29.188Z,86.80
2023-01-19T18:42:59.971Z,87.30
2023-01-19T18:45:30.875Z,86.80
2023-01-19T18:48:03.360Z,86.70
2023-01-19T18:50:34.449Z,87.00
2023-01-19T18:53:05.133Z,87.00
2023-01-19T18:55:37.515Z,87.20
2023-01-19T18:58:08.418Z,87.30
2023-01-19T19:00:39.495Z,87.70
2023-01-19T19:03:11.517Z,87.60
2023-01-19T19:05:42.637Z,87.50
2023-01-19T19:08:13.755Z,87.60
2023-01-19T19:10:45.671Z,87.60
2023-01-19T19:13:17.976Z,87.60
2023-01-19T19:15:48.691Z,87.80
2023-01-19T19:18:19.550Z,88.00
2023-01-19T19:20:50.220Z,88.10
2023-01-19T19:23:20.994Z,88.50
2023-01-19T19:25:52.061Z,88.30
2023-01-19T19:28:22.895Z,88.70
2023-01-19T19:30:58.153Z,88.80
2023-01-19T19:33:28.793Z,88.60
2023-01-19T19:36:00.005Z,88.60
2023-01-19T19:38:31.380Z,88.80
2023-01-19T19:41:05.146Z,89.20
2023-01-19T19:43:36.539Z,89.20
2023-01-19T19:46:09.817Z,89.20
2023-01-19T19:48:41.571Z,89.30
2023-01-19T19:51:18.991Z,89.60
2023-01-19T19:53:51.454Z,89.30
2023-01-19T19:56:24.090Z,89.20
2023-01-19T19:58:56.700Z,89.30
2023-01-19T20:01:33.977Z,89.10
2023-01-19T20:04:10.671Z,89.10
2023-01-19T20:06:46.084Z,89.20
2023-01-19T20:09:18.196Z,89.30
2023-01-19T20:11:50.210Z,89.50
2023-01-19T20:14:22.203Z,89.70
2023-01-19T20:16:53.789Z,90.00
2023-01-19T20:19:24.624Z,90.10
2023-01-19T20:21:55.618Z,90.10
2023-01-19T20:24:26.304Z,90.20
2023-01-19T20:26:58.317Z,90.40
2023-01-19T20:29:29.380Z,90.40
2023-01-19T20:32:00.310Z,90.40
2023-01-19T20:34:34.114Z,90.40
2023-01-19T20:37:05.979Z,90.50
2023-01-19T20:39:38.210Z,90.70
2023-01-19T20:42:10.401Z,90.80
2023-01-19T20:44:41.335Z,90.80
2023-01-19T20:47:12.291Z,90.90
2023-01-19T20:49:43.232Z,91.00
2023-01-19T20:52:13.963Z,91.10
2023-01-19T20:54:44.836Z,91.20
2023-01-19T20:57:15.532Z,91.20
2023-01-19T20:59:46.389Z,91.20
2023-01-19T21:02:17.948Z,91.30
2023-01-19T21:04:48.812Z,91.10
2023-01-19T21:07:19.619Z,91.10
2023-01-19T21:09:50.332Z,91.10
2023-01-19T21:12:22.551Z,91.10
2023-01-19T21:14:53.284Z,91.20
2023-01-19T21:17:23.986Z,91.30
2023-01-19T21:19:54.712Z,91.20
2023-01-19T21:22:25.533Z,91.20
2023-01-19T21:24:56.221Z,91.00
2023-01-19T21:27:27.028Z,91.10
2023-01-19T21:29:59.265Z,91.70
2023-01-19T21:32:30.119Z,91.30
2023-01-19T21:35:01.140Z,91.30
2023-01-19T21:37:32.999Z,91.40
2023-01-19T21:40:03.906Z,91.30
2023-01-19T21:42:34.616Z,91.30
2023-01-19T21:45:05.587Z,91.30
2023-01-19T21:47:38.037Z,91.30
2023-01-19T21:50:09.252Z,91.30
2023-01-19T21:52:41.152Z,91.30
2023-01-19T21:55:12.903Z,91.30
2023-01-19T21:57:43.727Z,91.30
2023-01-19T22:00:14.888Z,91.30
2023-01-19T22:02:58.590Z,91.40
2023-01-19T22:05:17.986Z,91.50
2023-01-19T22:07:48.681Z,91.60
2023-01-19T22:10:20.133Z,91.70
2023-01-19T22:12:50.807Z,92.00
2023-01-19T22:15:21.702Z,92.00
2023-01-19T22:17:52.470Z,92.00
2023-01-19T22:20:23.198Z,92.10
2023-01-19T22:22:53.997Z,92.00
2023-01-19T22:25:26.312Z,91.90
2023-01-19T22:27:57.604Z,92.80
2023-01-19T22:30:28.472Z,96.50
2023-01-19T22:32:59.196Z,96.90
2023-01-19T22:35:30.035Z,99.90
2023-01-19T22:38:00.816Z,92.20
2023-01-19T22:40:31.528Z,92.30
2023-01-19T22:43:02.361Z,91.90
2023-01-19T22:45:33.604Z,92.30
2023-01-19T22:48:04.319Z,92.20
2023-01-19T22:50:35.084Z,92.20
2023-01-19T22:53:05.990Z,92.20
2023-01-19T22:55:36.872Z,92.10
2023-01-19T22:58:07.649Z,92.00
2023-01-19T23:00:38.407Z,92.00
2023-01-19T23:03:09.344Z,92.10
2023-01-19T23:05:40.294Z,92.20
2023-01-19T23:08:11.204Z,92.40
2023-01-19T23:10:43.682Z,92.40
2023-01-19T23:13:14.719Z,92.20
2023-01-19T23:15:45.520Z,92.20
2023-01-19T23:18:16.264Z,92.10
2023-01-19T23:20:46.993Z,92.10
2023-01-19T23:23:17.795Z,92.00
2023-01-19T23:25:48.600Z,92.00
2023-01-19T23:28:19.505Z,92.00
2023-01-19T23:30:53.154Z,92.10
2023-01-19T23:33:28.377Z,92.20
2023-01-19T23:35:59.138Z,92.10
2023-01-19T23:38:29.858Z,92.00
2023-01-19T23:41:00.989Z,92.00
2023-01-19T23:43:32.128Z,92.00
2023-01-19T23:46:11.236Z,91.80
2023-01-19T23:48:42.426Z,91.70
2023-01-19T23:51:15.926Z,91.70
2023-01-19T23:53:46.950Z,91.60
2023-01-19T23:56:20.191Z,91.50
2023-01-19T23:58:56.374Z,91.50
